Time;durP1;ratioP1;P1;durP2;ratioP2;P2;SDS_P1;SDS_P2;PMS_P1;PMS_P2;Temp;Humidity;BMP_temperature;BMP_pressure;BME280_temperature;BME280_humidity;BME280_pressure;Samples;Min_cycle;Max_cycle;Signal;HPM_P1;HPM_P2
2023/09/05 00:01:51;;;;;;;2.10;1.50;;;23.00;66.20;;;;;;5053433;28;20033;-78
2023/09/05 00:04:17;;;;;;;1.70;1.42;;;23.00;66.30;;;;;;5019235;28;20047;-77
2023/09/05 00:06:43;;;;;;;1.95;1.73;;;23.00;66.30;;;;;;5035534;28;20104;-78
2023/09/05 00:09:08;;;;;;;1.80;1.50;;;22.90;66.30;;;;;;5052539;28;20041;-78
2023/09/05 00:11:34;;;;;;;2.47;1.80;;;22.90;66.30;;;;;;5035865;28;20063;-77
2023/09/05 00:14:00;;;;;;;2.08;1.70;;;22.90;66.30;;;;;;5036326;28;20048;-77
2023/09/05 00:16:27;;;;;;;2.22;1.67;;;22.90;66.30;;;;;;5052262;28;20044;-78
2023/09/05 00:18:53;;;;;;;2.70;1.80;;;22.90;66.30;;;;;;5019129;28;20029;-77
2023/09/05 00:21:20;;;;;;;2.30;1.63;;;22.80;66.30;;;;;;5035561;28;20063;-77
2023/09/05 00:23:46;;;;;;;2.65;1.90;;;22.80;66.30;;;;;;5035339;28;20037;-77
2023/09/05 00:26:12;;;;;;;2.15;1.90;;;22.80;66.30;;;;;;5018877;28;20025;-77
2023/09/05 00:28:38;;;;;;;2.55;1.67;;;22.80;66.30;;;;;;5052871;28;20454;-78
2023/09/05 00:31:04;;;;;;;2.47;1.70;;;22.80;66.30;;;;;;5022351;28;20040;-77
2023/09/05 00:33:30;;;;;;;3.33;1.95;;;22.80;66.40;;;;;;5022516;28;20032;-77
2023/09/05 00:35:56;;;;;;;2.35;1.70;;;22.70;66.30;;;;;;5022377;28;20114;-77
2023/09/05 00:38:25;;;;;;;2.00;1.48;;;22.70;66.30;;;;;;5038994;28;20025;-77
2023/09/05 00:40:51;;;;;;;1.90;1.55;;;22.70;66.30;;;;;;5039000;28;20084;-77
2023/09/05 00:43:20;;;;;;;2.00;1.80;;;22.70;66.30;;;;;;5057309;28;20069;-77
2023/09/05 00:45:51;;;;;;;2.20;1.70;;;22.60;66.30;;;;;;5056617;28;20128;-77
2023/09/05 00:48:23;;;;;;;1.70;1.60;;;22.60;66.60;;;;;;5038893;28;20033;-77
2023/09/05 00:50:51;;;;;;;2.28;1.80;;;22.60;66.30;;;;;;5056382;28;20446;-77
2023/09/05 00:53:17;;;;;;;1.67;1.50;;;22.60;66.40;;;;;;5055265;28;20033;-78
2023/09/05 00:55:43;;;;;;;1.70;1.60;;;22.60;66.40;;;;;;5022184;28;20503;-78
2023/09/05 00:58:11;;;;;;;2.15;1.67;;;22.60;66.40;;;;;;5039357;28;20029;-78
2023/09/05 01:00:36;;;;;;;2.03;1.70;;;22.60;66.40;;;;;;5055253;28;20083;-78
2023/09/05 01:03:02;;;;;;;1.65;1.50;;;22.50;66.40;;;;;;5055324;28;20037;-77
2023/09/05 01:05:30;;;;;;;1.88;1.70;;;22.50;66.40;;;;;;5039284;28;20390;-77
2023/09/05 01:08:05;;;;;;;1.83;1.60;;;22.50;66.50;;;;;;5039562;28;20033;-77
2023/09/05 01:10:47;;;;;;;1.90;1.70;;;22.50;66.40;;;;;;5054914;28;20025;-77
2023/09/05 01:13:22;;;;;;;1.42;1.33;;;22.40;66.40;;;;;;5055115;28;20032;-77
2023/09/05 01:15:48;;;;;;;2.28;1.73;;;22.40;66.40;;;;;;5054919;28;20040;-77
2023/09/05 01:18:14;;;;;;;1.85;1.58;;;22.40;66.40;;;;;;5038627;28;20033;-77
2023/09/05 01:21:05;;;;;;;1.48;1.38;;;22.40;66.40;;;;;;5038303;28;20394;-77
2023/09/05 01:23:49;;;;;;;2.25;1.60;;;22.40;66.50;;;;;;5057042;28;20033;-77
2023/09/05 01:26:16;;;;;;;1.98;1.70;;;22.40;66.50;;;;;;5041073;28;20104;-77
2023/09/05 01:28:43;;;;;;;1.60;1.45;;;22.30;66.40;;;;;;5041711;28;20029;-77
2023/09/05 01:31:11;;;;;;;1.95;1.60;;;22.30;66.50;;;;;;5044038;28;20029;-78
2023/09/05 01:33:38;;;;;;;1.58;1.48;;;22.30;66.50;;;;;;5058702;28;20484;-77
2023/09/05 01:36:06;;;;;;;1.80;1.50;;;22.30;66.50;;;;;;5054779;28;20029;-77
2023/09/05 01:38:32;;;;;;;1.52;1.42;;;22.30;66.50;;;;;;5054971;28;20068;-77
2023/09/05 01:40:58;;;;;;;1.50;1.38;;;22.20;66.50;;;;;;5054690;28;20049;-77
2023/09/05 01:43:24;;;;;;;2.08;1.80;;;22.20;66.50;;;;;;5041024;28;20474;-78
2023/09/05 01:45:49;;;;;;;1.85;1.52;;;22.20;66.50;;;;;;5054880;28;20045;-77
2023/09/05 01:48:15;;;;;;;2.17;1.70;;;22.20;66.50;;;;;;5037898;28;20116;-78
2023/09/05 01:50:41;;;;;;;1.58;1.45;;;22.20;66.50;;;;;;5021758;28;20040;-78
2023/09/05 01:53:07;;;;;;;1.73;1.63;;;22.20;66.50;;;;;;5021521;28;20033;-78
2023/09/05 01:55:33;;;;;;;1.83;1.48;;;22.10;66.50;;;;;;5038373;28;20458;-78
2023/09/05 01:57:58;;;;;;;1.80;1.55;;;22.10;66.50;;;;;;5037353;28;20478;-78
2023/09/05 02:00:24;;;;;;;1.67;1.50;;;22.10;66.50;;;;;;5054159;28;20082;-78
2023/09/05 02:02:50;;;;;;;2.20;1.67;;;22.10;66.50;;;;;;5021826;28;20025;-78
2023/09/05 02:05:16;;;;;;;1.77;1.60;;;22.10;66.50;;;;;;5037544;28;20535;-78
2023/09/05 02:07:41;;;;;;;1.90;1.65;;;22.10;66.50;;;;;;5037650;28;20470;-78
2023/09/05 02:10:07;;;;;;;1.98;1.60;;;22.10;66.50;;;;;;5038005;28;20041;-78
2023/09/05 02:12:35;;;;;;;2.13;1.70;;;22.00;66.50;;;;;;5040079;28;20036;-79
2023/09/05 02:15:02;;;;;;;1.75;1.50;;;22.00;66.50;;;;;;5054605;28;20522;-79
2023/09/05 02:17:33;;;;;;;1.95;1.55;;;22.00;66.50;;;;;;5054418;28;20124;-78
2023/09/05 02:19:58;;;;;;;2.65;1.70;;;22.00;66.60;;;;;;5055421;28;20194;-77
2023/09/05 02:22:24;;;;;;;1.88;1.65;;;22.00;66.60;;;;;;5054607;28;20484;-78
2023/09/05 02:24:50;;;;;;;2.53;1.75;;;22.00;66.60;;;;;;5038177;28;20045;-78
2023/09/05 02:27:16;;;;;;;2.10;1.75;;;21.90;66.60;;;;;;5054068;28;20461;-78
2023/09/05 02:29:42;;;;;;;1.95;1.70;;;21.90;66.60;;;;;;5054014;28;20037;-77
2023/09/05 02:32:08;;;;;;;2.78;1.85;;;21.90;66.60;;;;;;5020837;28;20033;-78
2023/09/05 02:34:34;;;;;;;1.98;1.70;;;21.90;66.70;;;;;;5037299;28;20402;-78
2023/09/05 02:37:00;;;;;;;1.70;1.60;;;21.90;66.70;;;;;;5036879;28;20112;-78
2023/09/05 02:39:26;;;;;;;2.47;2.00;;;21.80;66.60;;;;;;5055264;28;20529;-78
2023/09/05 02:41:52;;;;;;;2.33;1.95;;;21.80;66.70;;;;;;5054684;28;20536;-78
2023/09/05 02:44:18;;;;;;;1.88;1.70;;;21.80;66.70;;;;;;5036702;28;20037;-78
2023/09/05 02:46:45;;;;;;;2.15;1.83;;;21.80;66.70;;;;;;5020606;28;20068;-78
2023/09/05 02:49:10;;;;;;;2.03;1.73;;;21.80;66.70;;;;;;5053448;28;20033;-77
2023/09/05 02:51:36;;;;;;;2.05;1.83;;;21.70;66.70;;;;;;5036221;28;20044;-78
2023/09/05 02:54:02;;;;;;;2.60;1.67;;;21.70;66.70;;;;;;5020036;28;20186;-78
2023/09/05 02:56:28;;;;;;;1.92;1.73;;;21.70;66.70;;;;;;5036752;28;20029;-78
2023/09/05 02:58:54;;;;;;;2.20;1.92;;;21.70;66.80;;;;;;5053040;28;20469;-78
2023/09/05 03:01:20;;;;;;;2.55;2.00;;;21.60;66.70;;;;;;5052892;28;20108;-78
2023/09/05 03:03:46;;;;;;;2.08;1.80;;;21.60;66.80;;;;;;5036751;28;20083;-78
2023/09/05 03:06:13;;;;;;;2.40;1.80;;;21.60;66.80;;;;;;5053376;28;20044;-78
2023/09/05 03:08:45;;;;;;;2.30;1.73;;;21.60;66.80;;;;;;5036856;28;20513;-78
2023/09/05 03:11:17;;;;;;;2.00;1.67;;;21.60;66.80;;;;;;5037185;28;20473;-78
2023/09/05 03:13:43;;;;;;;2.10;1.73;;;21.60;66.90;;;;;;5053383;28;20423;-78
2023/09/05 03:16:09;;;;;;;2.83;2.00;;;21.60;66.90;;;;;;5058658;28;20045;-78
2023/09/05 03:18:35;;;;;;;2.08;1.80;;;21.50;66.90;;;;;;5058143;28;20125;-78
2023/09/05 03:21:01;;;;;;;2.10;1.70;;;21.50;67.50;;;;;;5021068;28;20032;-78
2023/09/05 03:23:27;;;;;;;2.30;1.60;;;21.50;66.90;;;;;;5054354;28;20037;-78
2023/09/05 03:25:53;;;;;;;2.20;1.73;;;21.50;66.90;;;;;;5037255;28;20045;-78
2023/09/05 03:28:20;;;;;;;2.30;1.77;;;21.50;66.90;;;;;;5021281;28;20095;-78
2023/09/05 03:30:46;;;;;;;2.20;1.63;;;21.50;67.00;;;;;;5037608;28;20036;-78
2023/09/05 03:33:11;;;;;;;2.08;1.75;;;21.40;66.90;;;;;;5054431;28;20029;-78
2023/09/05 03:35:37;;;;;;;2.40;1.80;;;21.40;67.00;;;;;;5037925;28;20468;-78
2023/09/05 03:38:06;;;;;;;2.63;1.75;;;21.40;67.00;;;;;;5056476;28;20057;-78
2023/09/05 03:40:31;;;;;;;2.22;1.75;;;21.40;67.00;;;;;;5055204;28;20048;-78
2023/09/05 03:42:57;;;;;;;2.10;1.83;;;21.40;67.00;;;;;;5021494;28;20081;-77
2023/09/05 03:45:23;;;;;;;3.05;1.70;;;21.40;67.00;;;;;;5037237;28;20374;-78
2023/09/05 03:47:49;;;;;;;2.15;1.70;;;21.30;67.00;;;;;;5036529;28;20386;-78
2023/09/05 03:50:17;;;;;;;2.70;2.05;;;21.30;67.00;;;;;;5036013;28;20039;-78
2023/09/05 03:52:44;;;;;;;2.50;2.00;;;21.30;67.00;;;;;;5053907;28;20116;-78
2023/09/05 03:55:09;;;;;;;2.30;1.90;;;21.30;67.00;;;;;;5053800;28;20139;-78
2023/09/05 03:57:35;;;;;;;2.42;1.80;;;21.30;67.00;;;;;;5052422;28;20069;-78
2023/09/05 04:00:03;;;;;;;2.75;1.85;;;21.30;67.10;;;;;;5036063;28;20037;-78
2023/09/05 04:02:39;;;;;;;2.72;1.90;;;21.30;67.10;;;;;;5052583;28;20041;-78
2023/09/05 04:05:05;;;;;;;2.33;1.80;;;21.20;67.10;;;;;;5039990;28;20488;-78
2023/09/05 04:07:31;;;;;;;2.10;1.83;;;21.20;67.10;;;;;;5046293;28;20032;-78
2023/09/05 04:09:57;;;;;;;3.40;1.95;;;21.20;67.10;;;;;;5052683;28;20052;-78
2023/09/05 04:12:23;;;;;;;2.17;1.65;;;21.20;67.10;;;;;;5050926;28;20082;-78
2023/09/05 04:14:49;;;;;;;2.28;1.80;;;21.20;67.10;;;;;;5033599;28;20033;-78
2023/09/05 04:17:14;;;;;;;2.35;1.98;;;21.20;67.10;;;;;;5040587;28;20520;-78
2023/09/05 04:19:40;;;;;;;2.35;1.83;;;21.20;67.20;;;;;;5039673;28;20040;-78
2023/09/05 04:22:06;;;;;;;2.53;2.08;;;21.10;67.10;;;;;;5056516;28;20424;-79
2023/09/05 04:24:32;;;;;;;2.58;1.92;;;21.10;67.20;;;;;;5056289;28;20033;-78
2023/09/05 04:26:59;;;;;;;2.38;1.85;;;21.10;67.20;;;;;;5055919;28;20491;-78
2023/09/05 04:29:25;;;;;;;2.05;1.70;;;21.10;67.20;;;;;;5023354;28;20037;-78
2023/09/05 04:31:51;;;;;;;2.53;2.08;;;21.10;67.20;;;;;;5039301;28;20130;-78
2023/09/05 04:34:17;;;;;;;2.83;2.08;;;21.10;67.20;;;;;;5056344;28;20449;-78
2023/09/05 04:36:42;;;;;;;2.88;1.95;;;21.10;67.20;;;;;;5026418;28;20032;-78
2023/09/05 04:39:10;;;;;;;2.33;1.80;;;21.00;67.20;;;;;;5048681;28;20084;-78
2023/09/05 04:41:36;;;;;;;2.78;2.05;;;21.00;67.20;;;;;;5039642;28;20074;-78
2023/09/05 04:44:01;;;;;;;2.60;2.00;;;21.00;67.20;;;;;;5039400;28;20033;-78
2023/09/05 04:46:31;;;;;;;2.20;2.00;;;21.00;67.20;;;;;;5038815;28;20048;-78
2023/09/05 04:48:57;;;;;;;3.08;2.15;;;21.00;67.20;;;;;;5055625;28;20033;-79
2023/09/05 04:51:22;;;;;;;3.53;2.15;;;21.00;67.30;;;;;;5055141;28;20035;-78
2023/09/05 04:53:48;;;;;;;2.33;1.85;;;20.90;67.20;;;;;;5055656;28;20567;-77
2023/09/05 04:56:14;;;;;;;2.95;2.13;;;20.90;67.20;;;;;;5040831;28;20481;-79
2023/09/05 04:58:39;;;;;;;2.55;2.00;;;20.90;67.30;;;;;;5039030;28;20561;-78
2023/09/05 05:01:05;;;;;;;2.88;2.17;;;20.90;67.30;;;;;;5055369;28;20039;-78
2023/09/05 05:03:32;;;;;;;2.80;2.20;;;20.90;67.30;;;;;;5038557;28;20029;-78
2023/09/05 05:05:59;;;;;;;2.50;1.95;;;20.90;67.30;;;;;;5055350;28;20033;-78
2023/09/05 05:08:25;;;;;;;2.50;2.00;;;20.90;67.30;;;;;;5038531;28;20044;-78
2023/09/05 05:10:51;;;;;;;2.15;1.90;;;20.90;67.30;;;;;;5055018;28;20394;-78
2023/09/05 05:13:17;;;;;;;3.50;2.15;;;20.80;67.30;;;;;;5054671;28;20037;-78
2023/09/05 05:15:45;;;;;;;2.75;2.15;;;20.80;67.30;;;;;;5037646;28;20037;-78
2023/09/05 05:18:11;;;;;;;2.95;2.38;;;20.80;67.40;;;;;;5055469;28;20025;-79
2023/09/05 05:20:37;;;;;;;2.55;1.98;;;20.80;67.40;;;;;;5022488;28;20037;-78
2023/09/05 05:23:04;;;;;;;2.80;2.30;;;20.80;67.40;;;;;;5055726;28;20064;-78
2023/09/05 05:25:30;;;;;;;2.35;2.03;;;20.80;67.40;;;;;;5056331;28;20120;-78
2023/09/05 05:27:55;;;;;;;2.88;2.10;;;20.80;67.50;;;;;;5038482;28;20072;-78
2023/09/05 05:30:21;;;;;;;3.13;2.33;;;20.70;67.40;;;;;;5055801;28;20037;-78
2023/09/05 05:32:48;;;;;;;2.53;2.10;;;20.70;67.50;;;;;;5038105;28;20083;-78
2023/09/05 05:35:13;;;;;;;2.95;2.25;;;20.70;67.50;;;;;;5038496;28;20048;-78
2023/09/05 05:37:39;;;;;;;3.85;2.38;;;20.70;67.50;;;;;;5021914;28;20024;-78
2023/09/05 05:40:07;;;;;;;2.67;2.25;;;20.70;67.50;;;;;;5038259;28;20061;-78
2023/09/05 05:42:32;;;;;;;2.70;2.10;;;20.70;67.50;;;;;;5053971;28;20048;-78
2023/09/05 05:44:58;;;;;;;3.00;2.13;;;20.70;67.50;;;;;;5037956;28;20040;-78
2023/09/05 05:47:24;;;;;;;3.40;2.00;;;20.60;67.50;;;;;;5038431;28;20105;-78
2023/09/05 05:49:50;;;;;;;2.40;2.05;;;20.60;67.50;;;;;;5037611;28;20039;-77
2023/09/05 05:52:16;;;;;;;2.80;2.10;;;20.60;67.50;;;;;;5037358;28;20056;-78
2023/09/05 05:54:41;;;;;;;2.85;2.20;;;20.60;67.60;;;;;;5054030;28;20032;-78
2023/09/05 05:57:07;;;;;;;3.10;2.05;;;20.60;67.60;;;;;;5037342;28;20037;-78
2023/09/05 05:59:34;;;;;;;2.85;2.13;;;20.60;67.60;;;;;;5037343;28;20064;-78
2023/09/05 06:01:59;;;;;;;3.15;2.17;;;20.60;67.60;;;;;;5053657;28;20040;-78
2023/09/05 06:04:25;;;;;;;2.70;2.03;;;20.60;67.70;;;;;;5053573;28;20037;-78
2023/09/05 06:06:51;;;;;;;2.58;2.08;;;20.50;67.60;;;;;;5054211;28;20029;-78
2023/09/05 06:09:20;;;;;;;2.35;1.80;;;20.50;67.60;;;;;;5053823;28;20025;-78
2023/09/05 06:11:46;;;;;;;2.40;1.92;;;20.60;67.70;;;;;;5021112;28;20124;-78
2023/09/05 06:14:15;;;;;;;3.13;2.00;;;20.50;67.70;;;;;;5053411;28;20037;-77
2023/09/05 06:16:41;;;;;;;2.80;2.20;;;20.60;67.80;;;;;;5055167;28;20029;-78
2023/09/05 06:19:08;;;;;;;2.70;2.20;;;20.60;67.80;;;;;;5053429;28;20024;-78
2023/09/05 06:21:35;;;;;;;3.40;2.22;;;20.50;67.70;;;;;;5036589;28;20064;-78
2023/09/05 06:24:01;;;;;;;2.83;2.25;;;20.50;67.70;;;;;;5053263;28;20100;-78
2023/09/05 06:26:26;;;;;;;3.83;2.40;;;20.50;67.70;;;;;;5052996;28;20559;-78
2023/09/05 06:28:53;;;;;;;3.00;2.33;;;20.50;67.70;;;;;;5036223;28;20040;-78
2023/09/05 06:31:20;;;;;;;2.40;1.83;;;20.50;67.70;;;;;;5053351;28;20093;-78
2023/09/05 06:33:46;;;;;;;2.80;2.00;;;20.50;67.70;;;;;;5020361;28;20068;-78
2023/09/05 06:36:11;;;;;;;2.58;1.92;;;20.50;67.70;;;;;;5053374;28;20033;-78
2023/09/05 06:38:37;;;;;;;3.17;2.30;;;20.50;67.70;;;;;;5053073;28;20036;-78
2023/09/05 06:41:07;;;;;;;2.80;2.10;;;20.50;67.80;;;;;;5052898;28;20636;-78
2023/09/05 06:43:33;;;;;;;2.88;2.13;;;20.50;67.80;;;;;;5036255;28;20029;-78
2023/09/05 06:46:07;;;;;;;2.63;2.08;;;20.50;67.80;;;;;;5053693;28;20047;-78
2023/09/05 06:48:38;;;;;;;3.45;2.08;;;20.50;67.80;;;;;;5037207;28;20107;-78
2023/09/05 06:51:04;;;;;;;2.65;1.92;;;20.50;67.80;;;;;;5036777;28;20048;-78
2023/09/05 06:53:31;;;;;;;2.72;2.03;;;20.50;67.80;;;;;;5036513;28;20035;-78
2023/09/05 06:55:56;;;;;;;2.65;2.15;;;20.50;67.90;;;;;;5052640;28;20057;-78
2023/09/05 06:58:24;;;;;;;2.75;2.10;;;20.50;67.90;;;;;;5036482;28;20087;-78
2023/09/05 07:00:54;;;;;;;2.50;1.90;;;20.50;68.00;;;;;;5053150;28;20028;-78
2023/09/05 07:03:26;;;;;;;2.83;2.08;;;20.50;68.00;;;;;;5053126;28;20033;-78
2023/09/05 07:05:53;;;;;;;3.13;2.20;;;20.50;68.00;;;;;;5036846;28;20051;-78
2023/09/05 07:08:19;;;;;;;2.35;2.10;;;20.50;68.00;;;;;;5053584;28;20044;-77
2023/09/05 07:10:47;;;;;;;3.95;1.90;;;20.50;68.00;;;;;;5036214;28;20029;-78
2023/09/05 07:13:14;;;;;;;2.63;2.00;;;20.50;68.00;;;;;;5036349;28;20457;-78
2023/09/05 07:15:40;;;;;;;2.53;2.08;;;20.50;68.00;;;;;;5052545;28;20028;-78
2023/09/05 07:18:05;;;;;;;2.75;2.00;;;20.50;67.90;;;;;;5052881;28;20515;-78
2023/09/05 07:20:32;;;;;;;2.85;1.88;;;20.50;67.90;;;;;;5052263;28;20036;-78
2023/09/05 07:22:58;;;;;;;2.67;2.10;;;20.50;68.60;;;;;;5052243;28;20037;-77
2023/09/05 07:25:24;;;;;;;2.90;2.05;;;20.60;68.00;;;;;;5035602;28;20041;-78
2023/09/05 07:27:49;;;;;;;1.92;1.73;;;20.60;68.00;;;;;;5052174;28;20040;-78
2023/09/05 07:30:16;;;;;;;2.83;2.05;;;20.60;68.00;;;;;;5052660;28;20462;-78
2023/09/05 07:32:42;;;;;;;2.90;2.13;;;20.60;68.00;;;;;;5052080;28;20040;-79
2023/09/05 07:35:08;;;;;;;2.45;1.83;;;20.60;68.00;;;;;;5052489;28;20543;-79
2023/09/05 07:37:35;;;;;;;2.28;1.90;;;20.60;68.00;;;;;;5051884;28;20064;-78
2023/09/05 07:40:00;;;;;;;2.33;2.03;;;20.60;68.00;;;;;;5052555;28;20036;-78
2023/09/05 07:42:27;;;;;;;2.40;1.88;;;20.70;68.10;;;;;;5019100;28;20580;-77
2023/09/05 07:44:53;;;;;;;2.45;2.17;;;20.60;68.00;;;;;;5035726;28;20447;-77
2023/09/05 07:47:19;;;;;;;3.00;2.00;;;20.70;68.10;;;;;;5035569;28;20037;-78
2023/09/05 07:49:44;;;;;;;2.65;2.03;;;20.70;68.10;;;;;;5035425;28;20033;-78
2023/09/05 07:52:10;;;;;;;2.67;2.05;;;20.70;68.10;;;;;;5035554;28;20075;-78
2023/09/05 07:54:36;;;;;;;2.08;1.88;;;20.70;68.10;;;;;;5052160;28;20032;-78
2023/09/05 07:57:03;;;;;;;2.58;2.20;;;20.70;68.20;;;;;;5019185;28;20036;-77
2023/09/05 07:59:31;;;;;;;2.15;1.90;;;20.70;68.10;;;;;;5035333;28;20076;-78
2023/09/05 08:01:57;;;;;;;1.98;1.75;;;20.70;68.10;;;;;;5054188;28;20086;-78
2023/09/05 08:04:23;;;;;;;2.90;1.98;;;20.80;68.20;;;;;;5035392;28;20041;-78
2023/09/05 08:06:49;;;;;;;2.58;1.80;;;20.80;68.20;;;;;;5052409;28;20108;-78
2023/09/05 08:09:15;;;;;;;2.80;1.80;;;20.80;68.20;;;;;;5018954;28;20037;-78
2023/09/05 08:11:40;;;;;;;2.38;1.92;;;20.80;68.20;;;;;;5051812;28;20029;-78
2023/09/05 08:14:06;;;;;;;2.22;1.75;;;20.80;68.10;;;;;;5035827;28;20078;-78
2023/09/05 08:16:33;;;;;;;2.30;1.73;;;20.90;68.20;;;;;;5035704;28;20174;-79
2023/09/05 08:18:59;;;;;;;2.00;1.52;;;20.90;68.20;;;;;;5052732;28;20190;-78
2023/09/05 08:21:26;;;;;;;2.35;1.75;;;20.90;68.20;;;;;;5051935;28;20484;-77
2023/09/05 08:23:52;;;;;;;2.42;1.85;;;20.90;68.20;;;;;;5035800;28;20114;-78
2023/09/05 08:26:18;;;;;;;2.92;1.90;;;20.90;68.10;;;;;;5052144;28;20199;-78
2023/09/05 08:28:45;;;;;;;2.13;1.70;;;21.00;68.20;;;;;;5051881;28;20040;-78
2023/09/05 08:31:12;;;;;;;2.13;1.75;;;21.00;68.20;;;;;;5052694;28;20057;-78
2023/09/05 08:33:38;;;;;;;2.17;1.60;;;21.00;68.10;;;;;;5035744;28;20040;-78
2023/09/05 08:36:09;;;;;;;2.05;1.70;;;21.10;68.10;;;;;;5035686;28;20132;-78
2023/09/05 08:38:37;;;;;;;1.92;1.48;;;21.10;68.00;;;;;;5035371;28;20125;-80
2023/09/05 08:41:06;;;;;;;2.30;1.63;;;21.20;68.00;;;;;;5034756;28;20102;-79
2023/09/05 08:43:34;;;;;;;2.00;1.65;;;21.20;67.90;;;;;;5052732;28;20465;-78
2023/09/05 08:46:00;;;;;;;1.85;1.67;;;21.30;67.80;;;;;;5035590;28;20386;-78
2023/09/05 08:48:27;;;;;;;2.75;1.63;;;21.40;67.80;;;;;;5035064;28;20421;-79
2023/09/05 08:50:55;;;;;;;1.65;1.52;;;21.40;67.60;;;;;;5036836;28;20033;-78
2023/09/05 08:53:34;;;;;;;1.83;1.50;;;21.50;67.60;;;;;;5055440;28;20056;-78
2023/09/05 08:56:01;;;;;;;3.03;1.60;;;21.50;67.50;;;;;;5056398;28;20043;-78
2023/09/05 08:58:28;;;;;;;1.83;1.60;;;21.60;67.40;;;;;;5055069;28;20032;-78
2023/09/05 09:00:54;;;;;;;1.92;1.60;;;21.70;67.30;;;;;;5038305;28;20068;-78
2023/09/05 09:03:20;;;;;;;2.20;1.77;;;21.70;67.10;;;;;;5038989;28;20056;-78
2023/09/05 09:05:46;;;;;;;1.77;1.60;;;21.80;67.10;;;;;;5038051;28;20037;-78
2023/09/05 09:08:13;;;;;;;2.25;1.83;;;21.90;67.10;;;;;;5038434;28;20094;-78
2023/09/05 09:10:39;;;;;;;2.55;1.70;;;22.00;67.00;;;;;;5021688;28;20481;-79
2023/09/05 09:13:15;;;;;;;2.22;1.67;;;22.10;67.00;;;;;;5055801;28;20029;-79
2023/09/05 09:15:43;;;;;;;3.08;2.08;;;22.20;67.00;;;;;;5054908;28;20098;-78
2023/09/05 09:18:17;;;;;;;1.85;1.35;;;22.20;66.80;;;;;;5038662;28;20154;-78
2023/09/05 09:20:44;;;;;;;2.60;1.98;;;22.30;66.80;;;;;;5038856;28;20029;-78
2023/09/05 09:23:09;;;;;;;3.25;1.90;;;22.40;66.70;;;;;;5054403;28;20032;-78
2023/09/05 09:25:35;;;;;;;2.33;1.73;;;22.50;66.70;;;;;;5055784;28;20040;-78
2023/09/05 09:28:01;;;;;;;1.73;1.58;;;22.60;66.70;;;;;;5054856;28;20056;-78
2023/09/05 09:30:29;;;;;;;2.50;1.73;;;22.70;66.60;;;;;;5038585;28;20385;-78
2023/09/05 09:32:55;;;;;;;2.88;1.70;;;22.80;66.60;;;;;;5055439;28;20041;-78
2023/09/05 09:35:22;;;;;;;1.63;1.50;;;22.80;66.50;;;;;;5054176;28;20473;-78
2023/09/05 09:37:51;;;;;;;2.40;1.58;;;23.00;66.50;;;;;;5054431;28;20036;-78
2023/09/05 09:40:17;;;;;;;2.05;1.63;;;23.10;66.50;;;;;;5038162;28;20054;-78
2023/09/05 09:42:48;;;;;;;3.47;2.00;;;23.10;66.30;;;;;;5037518;28;20055;-79
2023/09/05 09:45:16;;;;;;;2.40;1.40;;;23.30;66.40;;;;;;5054813;28;20091;-78
2023/09/05 09:47:47;;;;;;;1.70;1.58;;;23.30;66.30;;;;;;5038443;28;20111;-79
2023/09/05 09:50:14;;;;;;;2.13;1.70;;;23.40;66.40;;;;;;5038497;28;20029;-78
2023/09/05 09:52:44;;;;;;;1.70;1.60;;;23.50;66.20;;;;;;5037592;28;20033;-78
2023/09/05 09:55:13;;;;;;;2.10;1.42;;;23.60;66.20;;;;;;5053875;28;20039;-78
2023/09/05 09:58:08;;;;;;;1.73;1.50;;;23.70;66.20;;;;;;5054908;28;20033;-78
2023/09/05 10:00:35;;;;;;;;;;;23.80;66.20;;;;;;5032888;28;20045;-79
2023/09/05 10:03:04;;;;;;;2.47;1.45;;;23.90;65.80;;;;;;5070343;28;20456;-78
2023/09/05 10:05:31;;;;;;;1.60;1.40;;;24.10;65.80;;;;;;5054707;28;20051;-78
2023/09/05 10:07:58;;;;;;;1.88;1.50;;;24.20;65.90;;;;;;5037873;28;20102;-78
2023/09/05 10:10:25;;;;;;;1.77;1.50;;;24.20;65.90;;;;;;5053692;28;20115;-78
2023/09/05 10:12:54;;;;;;;2.05;1.70;;;24.30;65.90;;;;;;5037300;28;20032;-79
2023/09/05 10:15:21;;;;;;;1.88;1.50;;;24.40;65.90;;;;;;5055178;28;20489;-79
2023/09/05 10:17:48;;;;;;;1.65;1.50;;;24.50;66.00;;;;;;5053827;28;20377;-79
2023/09/05 10:20:18;;;;;;;1.92;1.40;;;24.60;66.00;;;;;;5053587;28;20049;-79
2023/09/05 10:22:46;;;;;;;2.22;1.65;;;24.70;65.90;;;;;;5054954;28;20633;-78
2023/09/05 10:25:16;;;;;;;1.60;1.45;;;24.80;66.00;;;;;;5054609;28;20064;-78
2023/09/05 10:27:42;;;;;;;2.25;1.60;;;24.90;66.10;;;;;;5036449;28;20028;-78
2023/09/05 10:30:10;;;;;;;1.88;1.52;;;25.00;66.10;;;;;;5036699;28;20036;-78
2023/09/05 10:32:37;;;;;;;1.77;1.40;;;25.10;66.10;;;;;;5020529;28;20163;-78
2023/09/05 10:35:03;;;;;;;2.10;1.52;;;25.20;66.20;;;;;;5036702;28;20128;-78
2023/09/05 10:37:39;;;;;;;1.73;1.40;;;25.30;66.30;;;;;;5053308;28;20031;-78
2023/09/05 10:40:09;;;;;;;1.70;1.35;;;25.40;66.40;;;;;;5036464;28;20036;-78
2023/09/05 10:42:49;;;;;;;1.40;1.30;;;25.50;66.40;;;;;;5052799;28;20084;-79
2023/09/05 10:45:30;;;;;;;1.70;1.50;;;25.60;66.60;;;;;;5053318;28;20041;-78
2023/09/05 10:48:17;;;;;;;1.52;1.33;;;25.70;66.70;;;;;;5036626;28;20031;-78
2023/09/05 10:51:06;;;;;;;1.48;1.38;;;25.80;67.30;;;;;;5037591;28;20480;-78
2023/09/05 10:53:37;;;;;;;1.88;1.50;;;25.90;66.80;;;;;;5036013;28;20127;-78
2023/09/05 10:56:03;;;;;;;1.40;1.30;;;26.00;66.80;;;;;;5053955;28;20041;-78
2023/09/05 10:58:48;;;;;;;1.77;1.50;;;26.00;66.80;;;;;;5037002;28;20484;-78
2023/09/05 11:01:32;;;;;;;1.60;1.38;;;26.10;67.00;;;;;;5052831;28;20060;-78
2023/09/05 11:04:03;;;;;;;1.83;1.40;;;26.20;67.10;;;;;;5053498;28;20060;-78
2023/09/05 11:06:28;;;;;;;1.65;1.20;;;26.20;67.10;;;;;;5036452;28;20045;-78
2023/09/05 11:09:01;;;;;;;1.67;1.58;;;26.30;67.40;;;;;;5052415;28;20029;-78
2023/09/05 11:11:28;;;;;;;1.40;1.30;;;26.40;67.70;;;;;;5035964;28;20040;-78
2023/09/05 11:13:54;;;;;;;1.40;1.30;;;26.40;67.70;;;;;;5035732;28;20072;-78
2023/09/05 11:16:20;;;;;;;1.95;1.42;;;26.50;68.00;;;;;;5036016;28;20044;-78
2023/09/05 11:18:47;;;;;;;2.15;1.52;;;26.50;68.10;;;;;;5052329;28;20454;-78
2023/09/05 11:21:23;;;;;;;1.30;1.20;;;26.60;68.40;;;;;;5052768;28;20040;-78
2023/09/05 11:23:53;;;;;;;1.35;1.25;;;26.60;68.70;;;;;;5036350;28;20029;-78
2023/09/05 11:26:19;;;;;;;1.30;1.20;;;26.60;68.70;;;;;;5052645;28;20123;-78
2023/09/05 11:28:48;;;;;;;1.40;1.30;;;26.70;68.90;;;;;;5019504;28;20025;-78
2023/09/05 11:31:15;;;;;;;1.67;1.40;;;26.80;69.10;;;;;;5036507;28;20384;-78
2023/09/05 11:33:41;;;;;;;2.92;1.50;;;26.80;69.20;;;;;;5052549;28;20109;-78
2023/09/05 11:36:07;;;;;;;1.67;1.35;;;26.80;69.30;;;;;;5035712;28;20064;-78
2023/09/05 11:38:47;;;;;;;1.50;1.30;;;26.90;69.50;;;;;;5052626;28;20029;-78
2023/09/05 11:41:13;;;;;;;1.55;1.30;;;26.90;69.70;;;;;;5052311;28;20100;-78
2023/09/05 11:43:52;;;;;;;2.53;1.55;;;26.90;69.50;;;;;;5036070;28;20045;-79
2023/09/05 11:46:19;;;;;;;1.27;1.17;;;26.90;69.70;;;;;;5051968;28;20067;-78
2023/09/05 11:48:47;;;;;;;1.45;1.35;;;26.90;69.70;;;;;;5052293;28;20041;-78
2023/09/05 11:51:14;;;;;;;1.50;1.38;;;27.00;69.80;;;;;;5052171;28;20032;-78
2023/09/05 11:53:45;;;;;;;1.52;1.38;;;27.00;69.80;;;;;;5019456;28;20515;-79
2023/09/05 11:56:11;;;;;;;1.83;1.58;;;27.00;69.90;;;;;;5053978;28;20044;-78
2023/09/05 11:58:38;;;;;;;1.95;1.25;;;27.10;70.00;;;;;;5036470;28;20119;-78
2023/09/05 12:01:04;;;;;;;1.40;1.30;;;27.10;70.00;;;;;;5053398;28;20029;-78
2023/09/05 12:03:34;;;;;;;1.55;1.38;;;27.10;70.00;;;;;;5035289;28;20064;-78
2023/09/05 12:05:59;;;;;;;1.40;1.30;;;27.10;69.90;;;;;;5052890;28;20120;-78
2023/09/05 12:08:25;;;;;;;1.48;1.20;;;27.20;69.90;;;;;;5035465;28;20124;-78
2023/09/05 12:10:52;;;;;;;1.33;1.23;;;27.20;69.80;;;;;;5035513;28;20108;-78
2023/09/05 12:13:18;;;;;;;1.30;1.20;;;27.20;69.80;;;;;;5052912;28;20032;-78
2023/09/05 12:15:46;;;;;;;1.50;1.25;;;27.20;69.70;;;;;;5035166;28;20037;-78
2023/09/05 12:18:19;;;;;;;1.30;1.20;;;27.20;69.70;;;;;;5035258;28;20029;-78
2023/09/05 12:20:55;;;;;;;1.80;1.30;;;27.30;69.70;;;;;;5053741;28;20472;-78
2023/09/05 12:23:24;;;;;;;2.05;1.50;;;27.20;69.50;;;;;;5052146;28;20079;-79
2023/09/05 12:25:57;;;;;;;1.25;1.15;;;27.30;69.50;;;;;;5055121;28;20037;-78
2023/09/05 12:28:25;;;;;;;1.20;1.00;;;27.30;69.30;;;;;;5056694;28;20020;-78
2023/09/05 12:30:53;;;;;;;1.42;1.30;;;27.30;69.20;;;;;;5055643;28;20563;-78
2023/09/05 12:33:19;;;;;;;1.45;1.30;;;27.30;69.00;;;;;;5055375;28;20486;-78
2023/09/05 12:35:46;;;;;;;1.33;1.20;;;27.40;68.90;;;;;;5056156;28;20037;-78
2023/09/05 12:38:11;;;;;;;1.55;1.42;;;27.40;68.80;;;;;;5038800;28;20028;-79
2023/09/05 12:40:38;;;;;;;1.50;1.40;;;27.40;68.70;;;;;;5055188;28;20036;-78
2023/09/05 12:43:04;;;;;;;1.67;1.30;;;27.40;68.50;;;;;;5055399;28;20494;-78
2023/09/05 12:45:32;;;;;;;2.03;1.40;;;27.50;68.40;;;;;;5055614;28;20117;-78
2023/09/05 12:47:58;;;;;;;1.27;1.15;;;27.50;68.30;;;;;;5055302;28;20033;-78
2023/09/05 12:50:32;;;;;;;2.17;1.20;;;27.50;68.20;;;;;;5055240;28;20090;-79